メインページ
METAR-TAF:

METAR-TAF

空港 :

ラアス・アル=ハイマ国際空港

ラアス・アル=ハイマ, アラブ首長国連邦

緯度: 25-37N, 経度: 055-56E, 海抜: 31m

現時点の気象観測

当レポートは43分前の20:00(UTC)に作成
西/南西の風 2kt
気温 33°C
湿度 26%
気圧 996 hPa
視程: 7000m

METAR: OMRK 212000Z 24002KT 7000 NSC 33/11 Q0996 A2941

時間: 00:43 (20:43 UTC)

予報

当レポートは3時間46分前の16:57(UTC)に作成
予報は21日の 18時(UTC)から 23日の 00時(UTC)まで有効
変向風 2kt
視程: 8000m
22日の 07時(UTC)から 22日の 09時(UTC)まで徐々に
北/北西の風 14kt
22日の 16時(UTC)から 22日の 18時(UTC)まで徐々に
の風 5kt

TAF: OMRK 211657Z 2118/2300 VRB02KT 8000 NSC BECMG 2207/2209 33014KT BECMG 2216/2218 18005KT

4,000以上の空港の気象観測と天気予報(METAR報とTAF報)

利用可能な観測所は地図上に黄色い丸と赤い丸で示す。

丸の上にカーソルを重ねると観測所名を参照できる。

次にクリックすると気象観測と天気予報を参照できる。

マップの切り替え:黒色「×」印の緑ボタンをクリックして拡大、「-」印の緑ボタンをクリックして縮小、緑色の三角印をクリックして隣りの地図に切り替え


METAR-TAF: